Impacts TAF Board
For situational awareness. Not to be used for flight planning purposes.
IDs:

KHBG - Hattiesburg/Chain Mu, MS, US

Issued at 1200 UTC 21 Feb 2019
Updated at 1440 UTC 21 Feb 2019
Potential Impact None Slight Moderate High
Time<<22/15Z 22/16Z 22/17Z 22/18Z 22/19Z 22/20Z 22/21Z 22/22Z 22/23Z 23/00Z 23/01Z 23/02Z 23/03Z
Type
VIS
CIG
Cover
FltCat
WX
WDir
WSpd
WGst
Raw TAF
KHBG 211200Z 2112/2212 04005KT 5SM BR VCSH OVC004
  FM211500 09005KT P6SM VCSH BKN008 OVC015
  FM211800 12008KT P6SM VCSH BKN015


METAR Board
Radar Display
Forecast Discussion
For situational awareness. Not to be used for flight planning purposes.